createdAt,value
2017-12-31T00:00:59.629Z,80.49
2017-12-31T00:03:27.073Z,80.45
2017-12-31T00:05:54.494Z,80.58
2017-12-31T00:08:21.910Z,80.89
2017-12-31T00:10:49.325Z,81.02
2017-12-31T00:13:16.753Z,81.17
2017-12-31T00:15:44.165Z,81.12
2017-12-31T00:18:11.608Z,81.34
2017-12-31T00:20:39.024Z,81.05
2017-12-31T00:23:06.444Z,80.83
2017-12-31T00:25:33.872Z,81.08
2017-12-31T00:28:01.285Z,81.09
2017-12-31T00:30:28.720Z,81.27
2017-12-31T00:32:56.133Z,81.41
2017-12-31T00:35:23.568Z,81.56
2017-12-31T00:37:50.992Z,81.68
2017-12-31T00:40:18.413Z,82.24
2017-12-31T00:42:45.821Z,82.90
2017-12-31T00:45:13.246Z,83.76
2017-12-31T00:47:40.712Z,84.64
2017-12-31T00:50:08.138Z,85.51
2017-12-31T00:52:35.545Z,85.87
2017-12-31T00:55:02.961Z,86.69
2017-12-31T00:57:30.378Z,87.37
2017-12-31T00:59:57.832Z,87.70
2017-12-31T01:02:25.245Z,88.28
2017-12-31T01:04:52.664Z,89.68
2017-12-31T01:07:20.389Z,90.25
2017-12-31T01:09:47.804Z,90.96
2017-12-31T01:12:15.252Z,91.20
2017-12-31T01:14:42.664Z,91.77
2017-12-31T01:17:10.073Z,92.04
2017-12-31T01:19:37.487Z,92.03
2017-12-31T01:22:04.896Z,92.17
2017-12-31T01:24:32.320Z,92.55
2017-12-31T01:26:59.788Z,93.34
2017-12-31T01:29:27.158Z,93.47
2017-12-31T01:31:54.564Z,93.72
2017-12-31T01:34:21.984Z,93.83
2017-12-31T01:36:49.396Z,93.89
2017-12-31T01:39:16.815Z,94.01
2017-12-31T01:41:44.228Z,93.94
2017-12-31T01:44:11.634Z,94.27
2017-12-31T01:46:39.057Z,94.57
2017-12-31T01:49:06.464Z,94.45
2017-12-31T01:51:33.876Z,94.64
2017-12-31T01:54:01.285Z,94.72
2017-12-31T01:56:28.708Z,94.68
2017-12-31T01:58:56.133Z,94.50
2017-12-31T02:01:23.600Z,94.47
2017-12-31T02:03:51.026Z,94.64
2017-12-31T02:06:18.437Z,94.70
2017-12-31T02:08:45.885Z,94.68
2017-12-31T02:11:13.341Z,94.77
2017-12-31T02:13:40.780Z,94.81
2017-12-31T02:16:08.193Z,95.05
2017-12-31T02:18:35.608Z,95.08
2017-12-31T02:21:03.048Z,94.95
2017-12-31T02:23:30.493Z,95.07
2017-12-31T02:25:57.914Z,95.25
2017-12-31T02:28:25.328Z,95.04
2017-12-31T02:30:52.755Z,95.28
2017-12-31T02:33:20.201Z,95.36
2017-12-31T02:35:47.620Z,95.25
2017-12-31T02:38:15.033Z,95.16
2017-12-31T02:40:42.492Z,95.26
2017-12-31T02:43:09.911Z,95.25
2017-12-31T02:45:37.330Z,95.34
2017-12-31T02:48:04.745Z,95.20
2017-12-31T02:50:32.173Z,95.35
2017-12-31T02:52:59.849Z,95.27
2017-12-31T02:55:27.293Z,95.37
2017-12-31T02:57:54.754Z,95.31
2017-12-31T03:00:22.173Z,95.31
2017-12-31T03:02:49.624Z,95.36
2017-12-31T03:05:17.040Z,95.39
2017-12-31T03:07:44.453Z,95.59
2017-12-31T03:10:11.933Z,95.54
2017-12-31T03:12:39.336Z,95.50
2017-12-31T03:15:06.768Z,95.29
2017-12-31T03:17:34.180Z,95.21
2017-12-31T03:20:01.598Z,95.32
2017-12-31T03:22:29.018Z,95.46
2017-12-31T03:24:56.459Z,95.53
2017-12-31T03:27:23.894Z,95.57
2017-12-31T03:29:51.306Z,95.72
2017-12-31T03:32:18.732Z,95.74
2017-12-31T03:34:46.174Z,95.87
2017-12-31T03:37:13.600Z,95.84
2017-12-31T03:39:41.028Z,95.92
2017-12-31T03:42:08.457Z,95.96
2017-12-31T03:44:35.900Z,95.86
2017-12-31T03:47:03.340Z,96.03
2017-12-31T03:49:30.766Z,96.56
2017-12-31T03:51:58.179Z,96.87
2017-12-31T03:54:25.670Z,96.80
2017-12-31T03:56:53.110Z,96.87
2017-12-31T03:59:20.528Z,96.98
2017-12-31T04:01:47.973Z,97.01
2017-12-31T04:04:15.417Z,97.18
2017-12-31T04:06:42.824Z,97.26
2017-12-31T04:09:10.260Z,97.33
2017-12-31T04:11:37.672Z,97.37
2017-12-31T04:14:05.102Z,97.31
2017-12-31T04:16:32.521Z,97.41
2017-12-31T04:18:59.932Z,97.50
2017-12-31T04:21:27.359Z,97.87
2017-12-31T04:23:54.785Z,97.80
2017-12-31T04:26:22.200Z,98.00
2017-12-31T04:28:49.616Z,97.93
2017-12-31T04:31:17.062Z,97.77
2017-12-31T04:33:44.497Z,97.71
2017-12-31T04:36:11.918Z,98.60
2017-12-31T04:38:39.347Z,98.69
2017-12-31T04:41:06.769Z,99.32
2017-12-31T04:43:34.193Z,98.98
2017-12-31T04:46:01.624Z,98.78
2017-12-31T04:48:29.041Z,99.25
2017-12-31T04:50:56.449Z,98.91
2017-12-31T04:53:23.892Z,98.36
2017-12-31T04:55:51.292Z,97.90
2017-12-31T04:58:18.704Z,97.18
2017-12-31T05:00:46.120Z,97.24
2017-12-31T05:03:13.536Z,96.79
2017-12-31T05:05:40.962Z,96.17
2017-12-31T05:08:08.377Z,96.12
2017-12-31T05:10:35.793Z,96.13
2017-12-31T05:13:03.204Z,95.63
2017-12-31T05:15:30.657Z,95.51
2017-12-31T05:17:58.062Z,95.31
2017-12-31T05:20:25.501Z,95.31
2017-12-31T05:22:52.926Z,95.19
2017-12-31T05:25:20.329Z,94.77
2017-12-31T05:27:47.737Z,94.33
2017-12-31T05:30:15.202Z,93.36
2017-12-31T05:32:42.600Z,93.54
2017-12-31T05:35:10.016Z,93.50
2017-12-31T05:37:37.433Z,92.55
2017-12-31T05:40:04.856Z,92.67
2017-12-31T05:42:32.284Z,92.05
2017-12-31T05:44:59.688Z,91.99
2017-12-31T05:47:27.110Z,91.36
2017-12-31T05:49:54.517Z,91.01
2017-12-31T05:52:21.943Z,90.52
2017-12-31T05:54:49.349Z,90.35
2017-12-31T05:57:16.773Z,90.11
2017-12-31T05:59:44.203Z,89.67
2017-12-31T06:02:11.664Z,89.18
2017-12-31T06:04:39.110Z,88.75
2017-12-31T06:07:06.520Z,88.72
2017-12-31T06:09:33.954Z,88.11
2017-12-31T06:12:01.361Z,87.78
2017-12-31T06:14:28.808Z,87.16
2017-12-31T06:16:56.225Z,85.93
2017-12-31T06:19:23.666Z,86.33
2017-12-31T06:21:51.088Z,86.07
2017-12-31T06:24:18.521Z,86.07
2017-12-31T06:26:45.981Z,86.02
2017-12-31T06:29:13.409Z,85.57
2017-12-31T06:31:40.818Z,85.14
2017-12-31T06:34:08.270Z,84.68
2017-12-31T06:36:35.678Z,84.04
2017-12-31T06:39:03.081Z,83.78
2017-12-31T06:41:30.529Z,83.59
2017-12-31T06:43:57.932Z,83.00
2017-12-31T06:46:25.373Z,83.10
2017-12-31T06:48:52.785Z,82.09
2017-12-31T06:51:20.210Z,81.79
2017-12-31T06:53:47.634Z,81.49
2017-12-31T06:56:15.056Z,81.08
2017-12-31T06:58:42.512Z,81.61
2017-12-31T07:01:10.041Z,81.37
2017-12-31T07:03:37.480Z,81.05
2017-12-31T07:06:04.908Z,81.14
2017-12-31T07:08:32.322Z,80.41
2017-12-31T07:11:00.151Z,80.35
2017-12-31T07:13:27.587Z,79.77
2017-12-31T07:15:54.996Z,79.39
2017-12-31T07:18:22.475Z,78.87
2017-12-31T07:20:49.886Z,79.84
2017-12-31T07:23:17.308Z,79.13
2017-12-31T07:25:44.729Z,79.06
2017-12-31T07:28:12.156Z,78.84
2017-12-31T07:30:39.592Z,78.62
2017-12-31T07:33:07.021Z,78.33
2017-12-31T07:35:34.449Z,77.16
2017-12-31T07:38:01.884Z,77.99
2017-12-31T07:40:29.303Z,77.92
2017-12-31T07:42:56.754Z,77.81
2017-12-31T07:45:24.170Z,77.25
2017-12-31T07:47:51.589Z,77.76
2017-12-31T07:50:19.020Z,77.54
2017-12-31T07:52:46.468Z,77.34
2017-12-31T07:55:13.973Z,77.95
2017-12-31T07:57:41.397Z,77.23
2017-12-31T08:00:08.813Z,77.20
2017-12-31T08:02:36.222Z,76.52
2017-12-31T08:05:03.625Z,76.13
2017-12-31T08:07:31.060Z,76.35
2017-12-31T08:09:58.472Z,76.30
2017-12-31T08:12:25.896Z,76.08
2017-12-31T08:14:53.304Z,75.76
2017-12-31T08:17:20.713Z,74.50
2017-12-31T08:19:48.124Z,75.69
2017-12-31T08:22:15.537Z,75.35
2017-12-31T08:24:42.944Z,74.92
2017-12-31T08:27:10.357Z,74.52
2017-12-31T08:29:37.768Z,75.24
2017-12-31T08:32:05.227Z,74.25
2017-12-31T08:34:32.665Z,74.31
2017-12-31T08:37:00.085Z,73.70
2017-12-31T08:39:27.502Z,74.16
2017-12-31T08:41:54.908Z,74.11
2017-12-31T08:44:22.333Z,74.27
2017-12-31T08:46:49.740Z,73.48
2017-12-31T08:49:17.145Z,73.09
2017-12-31T08:51:44.553Z,73.53
2017-12-31T08:54:11.961Z,73.02
2017-12-31T08:56:39.394Z,73.67
2017-12-31T08:59:06.826Z,73.94
2017-12-31T09:01:34.233Z,73.49
2017-12-31T09:04:01.669Z,73.88
2017-12-31T09:06:29.073Z,74.28
2017-12-31T09:08:56.498Z,73.82
2017-12-31T09:11:23.905Z,73.24
2017-12-31T09:13:51.329Z,74.51
2017-12-31T09:16:18.746Z,73.89
2017-12-31T09:18:46.160Z,73.97
2017-12-31T09:21:13.601Z,73.79
2017-12-31T09:23:42.557Z,73.61
2017-12-31T09:26:10.037Z,74.22
2017-12-31T09:28:37.494Z,74.33
2017-12-31T09:31:08.378Z,74.52
2017-12-31T09:33:36.028Z,74.65
2017-12-31T09:36:04.032Z,74.45
2017-12-31T09:38:32.098Z,74.46
2017-12-31T09:41:00.293Z,74.80
2017-12-31T09:43:27.721Z,74.62
2017-12-31T09:45:55.193Z,75.65
2017-12-31T09:48:22.631Z,75.25
2017-12-31T09:50:50.125Z,75.65
2017-12-31T09:53:17.567Z,75.40
2017-12-31T09:55:44.984Z,76.36
2017-12-31T09:58:12.417Z,76.41
2017-12-31T10:00:39.882Z,75.90
2017-12-31T10:03:07.296Z,75.81
2017-12-31T10:05:34.720Z,76.14
2017-12-31T10:08:02.155Z,76.11
2017-12-31T10:10:35.176Z,76.07
2017-12-31T10:13:02.589Z,76.46
2017-12-31T10:15:30.005Z,76.55
2017-12-31T10:17:57.454Z,76.37
2017-12-31T10:20:24.877Z,76.67
2017-12-31T10:22:52.340Z,76.99
2017-12-31T10:25:19.833Z,76.95
2017-12-31T10:27:47.252Z,77.55
2017-12-31T10:30:14.718Z,77.51
2017-12-31T10:32:42.137Z,77.85
2017-12-31T10:35:10.425Z,77.94
2017-12-31T10:37:37.866Z,78.15
2017-12-31T10:40:05.286Z,78.42
2017-12-31T10:42:32.713Z,78.69
2017-12-31T10:45:00.153Z,78.53
2017-12-31T10:47:27.573Z,78.71
2017-12-31T10:49:54.978Z,78.76
2017-12-31T10:52:22.406Z,79.21
2017-12-31T10:54:49.828Z,78.54
2017-12-31T10:57:18.196Z,78.47
2017-12-31T10:59:45.632Z,78.93
2017-12-31T11:02:13.057Z,79.18
2017-12-31T11:04:40.473Z,78.91
2017-12-31T11:07:07.918Z,79.05
2017-12-31T11:09:35.345Z,79.13
2017-12-31T11:12:02.761Z,78.82
2017-12-31T11:14:30.184Z,78.83
2017-12-31T11:16:57.598Z,78.84
2017-12-31T11:19:25.013Z,79.04
2017-12-31T11:21:52.429Z,78.93
2017-12-31T11:24:26.409Z,78.63
2017-12-31T11:26:53.853Z,78.67
2017-12-31T11:29:21.265Z,77.87
2017-12-31T11:31:48.685Z,78.01
2017-12-31T11:34:16.105Z,77.67
2017-12-31T11:36:57.441Z,77.32
2017-12-31T11:39:24.865Z,77.71
2017-12-31T11:41:53.069Z,77.57
2017-12-31T11:44:20.848Z,77.11
2017-12-31T11:46:48.941Z,76.59
2017-12-31T11:49:21.029Z,75.95
2017-12-31T11:51:48.518Z,75.83
2017-12-31T11:54:16.396Z,75.52
2017-12-31T11:56:43.805Z,75.63
2017-12-31T11:59:11.212Z,74.08
2017-12-31T12:01:38.635Z,74.22
2017-12-31T12:04:06.037Z,74.91
2017-12-31T12:06:33.453Z,73.94
2017-12-31T12:09:00.873Z,74.59
2017-12-31T12:11:28.269Z,74.67
2017-12-31T12:13:55.692Z,74.33
2017-12-31T12:16:23.096Z,74.87
2017-12-31T12:18:50.535Z,74.24
2017-12-31T12:21:17.929Z,74.25
2017-12-31T12:23:45.332Z,74.52
2017-12-31T12:26:12.737Z,75.01
2017-12-31T12:28:40.149Z,74.75
2017-12-31T12:31:07.556Z,75.16
2017-12-31T12:33:34.964Z,75.44
2017-12-31T12:36:02.368Z,75.76
2017-12-31T12:38:30.229Z,76.14
2017-12-31T12:40:57.637Z,76.25
2017-12-31T12:43:25.041Z,75.95
2017-12-31T12:45:52.449Z,76.49
2017-12-31T12:48:19.852Z,76.46
2017-12-31T12:50:47.256Z,76.95
2017-12-31T12:53:14.708Z,76.90
2017-12-31T12:55:42.117Z,77.02
2017-12-31T12:58:09.514Z,77.00
2017-12-31T13:00:36.942Z,76.23
2017-12-31T13:03:04.347Z,76.08
2017-12-31T13:05:31.759Z,76.22
2017-12-31T13:07:59.153Z,76.15
2017-12-31T13:10:26.569Z,75.30
2017-12-31T13:12:53.979Z,74.78
2017-12-31T13:15:21.381Z,75.09
2017-12-31T13:17:48.798Z,73.63
2017-12-31T13:20:16.215Z,73.54
2017-12-31T13:22:43.626Z,73.66
2017-12-31T13:25:11.037Z,72.64
2017-12-31T13:27:38.441Z,72.16
2017-12-31T13:30:05.849Z,72.68
2017-12-31T13:32:33.258Z,71.84
2017-12-31T13:35:00.665Z,72.21
2017-12-31T13:37:28.069Z,70.52
2017-12-31T13:39:55.485Z,71.54
2017-12-31T13:42:22.884Z,71.12
2017-12-31T13:44:50.285Z,70.89
2017-12-31T13:47:17.704Z,70.36
2017-12-31T13:49:45.104Z,70.44
2017-12-31T13:52:12.517Z,70.39
2017-12-31T13:54:39.985Z,70.43
2017-12-31T13:57:07.376Z,70.26
2017-12-31T13:59:34.793Z,70.14
2017-12-31T14:02:02.196Z,70.06
2017-12-31T14:04:29.601Z,70.37
2017-12-31T14:06:57.032Z,70.24
2017-12-31T14:09:24.441Z,69.37
2017-12-31T14:11:51.877Z,70.57
2017-12-31T14:14:19.283Z,69.90
2017-12-31T14:16:46.692Z,69.76
2017-12-31T14:19:14.100Z,69.61
2017-12-31T14:21:41.508Z,69.40
2017-12-31T14:24:08.909Z,69.16
2017-12-31T14:26:36.338Z,69.76
2017-12-31T14:29:03.733Z,69.34
2017-12-31T14:31:31.177Z,69.38
2017-12-31T14:33:58.597Z,69.06
2017-12-31T14:36:25.997Z,69.54
2017-12-31T14:38:54.649Z,68.99
2017-12-31T14:41:22.062Z,68.57
2017-12-31T14:43:49.473Z,69.51
2017-12-31T14:46:16.877Z,69.01
2017-12-31T14:48:45.152Z,68.74
2017-12-31T14:51:14.274Z,69.22
2017-12-31T14:53:41.673Z,68.63
2017-12-31T14:56:09.093Z,68.80
2017-12-31T14:58:36.521Z,68.89
2017-12-31T15:01:03.929Z,68.93
2017-12-31T15:03:31.357Z,68.95
2017-12-31T15:05:58.760Z,68.70
2017-12-31T15:08:26.171Z,69.41
2017-12-31T15:10:53.598Z,68.98
2017-12-31T15:13:21.007Z,69.04
2017-12-31T15:15:52.422Z,68.79
2017-12-31T15:18:19.829Z,68.70
2017-12-31T15:20:47.256Z,68.38
2017-12-31T15:23:14.676Z,69.13
2017-12-31T15:25:42.081Z,69.28
2017-12-31T15:28:09.493Z,68.81
2017-12-31T15:30:36.959Z,68.13
2017-12-31T15:33:04.360Z,68.72
2017-12-31T15:35:31.773Z,68.84
2017-12-31T15:37:59.198Z,68.54
2017-12-31T15:40:26.645Z,68.72
2017-12-31T15:42:54.049Z,68.69
2017-12-31T15:45:21.454Z,69.17
2017-12-31T15:47:48.861Z,68.98
2017-12-31T15:50:16.270Z,68.87
2017-12-31T15:52:43.688Z,68.67
2017-12-31T15:55:16.222Z,69.46
2017-12-31T15:57:44.502Z,69.33
2017-12-31T16:00:11.909Z,69.39
2017-12-31T16:02:39.305Z,69.41
2017-12-31T16:05:06.726Z,68.81
2017-12-31T16:07:34.129Z,69.14
2017-12-31T16:10:01.538Z,69.50
2017-12-31T16:12:28.965Z,69.48
2017-12-31T16:14:56.380Z,69.41
2017-12-31T16:17:23.788Z,69.27
2017-12-31T16:19:51.192Z,69.26
2017-12-31T16:22:18.641Z,69.48
2017-12-31T16:24:46.060Z,69.15
2017-12-31T16:27:13.565Z,68.88
2017-12-31T16:29:40.993Z,68.71
2017-12-31T16:32:08.492Z,68.90
2017-12-31T16:34:35.876Z,68.92
2017-12-31T16:37:03.281Z,68.85
2017-12-31T16:39:31.787Z,68.50
2017-12-31T16:41:59.184Z,68.98
2017-12-31T16:44:26.582Z,68.68
2017-12-31T16:46:54.044Z,68.99
2017-12-31T16:49:21.409Z,69.04
2017-12-31T16:51:53.277Z,68.73
2017-12-31T16:54:20.689Z,69.12
2017-12-31T16:56:48.089Z,69.29
2017-12-31T16:59:15.498Z,69.38
2017-12-31T17:01:42.925Z,69.01
2017-12-31T17:04:10.329Z,69.10
2017-12-31T17:06:37.809Z,68.81
2017-12-31T17:09:05.218Z,68.83
2017-12-31T17:11:32.620Z,68.29
2017-12-31T17:14:00.026Z,68.46
2017-12-31T17:16:27.462Z,68.74
2017-12-31T17:18:54.869Z,68.50
2017-12-31T17:21:22.271Z,68.86
2017-12-31T17:23:49.673Z,69.02
2017-12-31T17:26:17.089Z,69.66
2017-12-31T17:28:44.521Z,69.79
2017-12-31T17:31:11.994Z,71.02
2017-12-31T17:33:46.281Z,72.44
2017-12-31T17:36:24.149Z,71.19
2017-12-31T17:38:51.564Z,72.37
2017-12-31T17:41:18.973Z,73.14
2017-12-31T17:43:49.729Z,72.69
2017-12-31T17:46:17.188Z,73.21
2017-12-31T17:48:44.641Z,74.05
2017-12-31T17:51:12.093Z,72.62
2017-12-31T17:53:39.509Z,73.37
2017-12-31T17:56:06.908Z,72.46
2017-12-31T17:58:40.073Z,72.94
2017-12-31T18:01:17.960Z,71.85
2017-12-31T18:03:45.381Z,73.09
2017-12-31T18:06:12.793Z,72.22
2017-12-31T18:08:40.197Z,70.74
2017-12-31T18:11:07.614Z,71.32
2017-12-31T18:13:35.033Z,70.62
2017-12-31T18:16:02.677Z,70.46
2017-12-31T18:18:30.081Z,69.60
2017-12-31T18:20:57.546Z,68.36
2017-12-31T18:23:24.923Z,69.10
2017-12-31T18:25:52.328Z,68.35
2017-12-31T18:28:19.758Z,68.96
2017-12-31T18:30:47.163Z,68.15
2017-12-31T18:33:14.589Z,68.30
2017-12-31T18:35:42.003Z,68.11
2017-12-31T18:38:09.405Z,67.37
2017-12-31T18:40:36.830Z,68.23
2017-12-31T18:43:04.232Z,67.65
2017-12-31T18:45:31.647Z,67.57
2017-12-31T18:47:59.080Z,67.41
2017-12-31T18:50:26.517Z,67.87
2017-12-31T18:52:53.940Z,67.64
2017-12-31T18:55:21.348Z,67.24
2017-12-31T18:57:48.774Z,67.23
2017-12-31T19:00:16.200Z,67.54
2017-12-31T19:02:43.617Z,67.19
2017-12-31T19:05:11.029Z,67.34
2017-12-31T19:07:38.450Z,66.45
2017-12-31T19:10:05.868Z,66.27
2017-12-31T19:12:33.281Z,66.57
2017-12-31T19:15:00.706Z,66.49
2017-12-31T19:17:28.113Z,66.13
2017-12-31T19:19:55.534Z,66.38
2017-12-31T19:22:22.941Z,66.94
2017-12-31T19:24:50.371Z,66.06
2017-12-31T19:27:17.788Z,66.30
2017-12-31T19:29:45.193Z,66.76
2017-12-31T19:32:12.628Z,66.42
2017-12-31T19:34:40.046Z,66.03
2017-12-31T19:37:07.477Z,66.47
2017-12-31T19:39:34.884Z,65.94
2017-12-31T19:42:02.300Z,65.78
2017-12-31T19:44:29.705Z,65.57
2017-12-31T19:46:57.109Z,65.87
2017-12-31T19:49:24.526Z,65.54
2017-12-31T19:51:51.934Z,65.53
2017-12-31T19:54:20.153Z,65.67
2017-12-31T19:56:47.565Z,65.31
2017-12-31T19:59:15.073Z,65.73
2017-12-31T20:01:43.450Z,65.38
2017-12-31T20:04:10.874Z,64.91
2017-12-31T20:06:38.289Z,65.35
2017-12-31T20:09:05.701Z,65.51
2017-12-31T20:11:33.137Z,65.67
2017-12-31T20:14:00.552Z,65.22
2017-12-31T20:16:27.965Z,65.76
2017-12-31T20:18:55.361Z,65.48
2017-12-31T20:21:22.762Z,66.14
2017-12-31T20:23:50.169Z,66.42
2017-12-31T20:26:17.600Z,66.42
2017-12-31T20:28:45.022Z,67.44
2017-12-31T20:31:12.444Z,71.13
2017-12-31T20:33:41.001Z,77.62
2017-12-31T20:36:08.405Z,83.12
2017-12-31T20:38:35.831Z,86.83
2017-12-31T20:41:03.270Z,88.86
2017-12-31T20:43:30.673Z,89.90
2017-12-31T20:45:58.092Z,90.22
2017-12-31T20:48:25.510Z,91.04
2017-12-31T20:50:52.924Z,91.07
2017-12-31T20:53:20.344Z,90.78
2017-12-31T20:55:47.784Z,91.67
2017-12-31T20:58:15.235Z,91.67
2017-12-31T21:00:42.632Z,91.79
2017-12-31T21:03:10.061Z,91.62
2017-12-31T21:05:37.469Z,91.40
2017-12-31T21:08:10.572Z,91.56
2017-12-31T21:10:39.009Z,91.78
2017-12-31T21:13:06.432Z,91.36
2017-12-31T21:15:33.857Z,91.39
2017-12-31T21:18:01.284Z,91.07
2017-12-31T21:20:28.825Z,90.83
2017-12-31T21:22:56.228Z,90.49
2017-12-31T21:25:23.641Z,90.28
2017-12-31T21:27:51.065Z,90.04
2017-12-31T21:30:18.477Z,89.75
2017-12-31T21:32:45.885Z,89.10
2017-12-31T21:35:13.293Z,89.02
2017-12-31T21:37:40.710Z,89.35
2017-12-31T21:40:08.114Z,88.98
2017-12-31T21:42:35.524Z,89.41
2017-12-31T21:45:02.936Z,88.67
2017-12-31T21:47:30.360Z,88.92
2017-12-31T21:49:57.769Z,88.71
2017-12-31T21:52:25.177Z,88.20
2017-12-31T21:54:52.597Z,88.05
2017-12-31T21:57:20.010Z,87.36
2017-12-31T21:59:47.417Z,87.33
2017-12-31T22:02:14.829Z,87.32
2017-12-31T22:04:42.258Z,86.45
2017-12-31T22:07:09.665Z,86.36
2017-12-31T22:09:37.221Z,85.97
2017-12-31T22:12:04.625Z,86.22
2017-12-31T22:14:32.032Z,85.89
2017-12-31T22:16:59.440Z,84.84
2017-12-31T22:19:26.869Z,85.87
2017-12-31T22:21:54.284Z,84.55
2017-12-31T22:24:21.697Z,84.51
2017-12-31T22:26:49.105Z,85.08
2017-12-31T22:29:16.530Z,84.03
2017-12-31T22:31:43.944Z,83.21
2017-12-31T22:34:11.353Z,83.37
2017-12-31T22:36:38.768Z,83.08
2017-12-31T22:39:06.196Z,83.59
2017-12-31T22:41:33.604Z,83.22
2017-12-31T22:44:01.020Z,82.89
2017-12-31T22:46:28.432Z,83.05
2017-12-31T22:48:55.858Z,82.65
2017-12-31T22:51:23.269Z,82.31
2017-12-31T22:53:50.673Z,82.61
2017-12-31T22:56:18.096Z,82.40
2017-12-31T22:58:45.509Z,81.93
2017-12-31T23:01:12.920Z,81.17
2017-12-31T23:03:40.345Z,81.68
2017-12-31T23:06:07.753Z,80.62
2017-12-31T23:08:35.177Z,81.09
2017-12-31T23:11:02.594Z,80.55
2017-12-31T23:13:30.020Z,80.43
2017-12-31T23:15:57.440Z,79.83
2017-12-31T23:18:24.849Z,78.43
2017-12-31T23:20:52.270Z,80.89
2017-12-31T23:23:19.676Z,82.26
2017-12-31T23:25:47.089Z,84.48
2017-12-31T23:28:14.501Z,85.38
2017-12-31T23:30:41.923Z,87.13
2017-12-31T23:33:09.338Z,87.59
2017-12-31T23:35:36.761Z,88.45
2017-12-31T23:38:04.164Z,88.94
2017-12-31T23:40:31.565Z,90.17
2017-12-31T23:42:58.977Z,92.09
2017-12-31T23:45:26.381Z,91.78
2017-12-31T23:47:53.796Z,92.59
2017-12-31T23:50:21.206Z,92.89
2017-12-31T23:52:48.608Z,94.03
2017-12-31T23:55:16.032Z,94.21
2017-12-31T23:57:43.428Z,94.75
